Terminal Aerodrome Forecast
Issued by NWS

Current Version | Previous Version | Text Only | Print | Product List | Glossary Off
Versions: 1 2 3 4 5 6 7 8 9 10 11 12 13 14 15 16 17 18 19 20

000
FTUS41 KILN 011700
TAFLUK
TAF
KLUK 011739Z 0118/0218 VRB03KT P6SM SCT020 OVC035
      TEMPO 0120/0123 24006KT 5SM -RA BKN020
     FM012300 28006KT P6SM VCSH OVC024
      TEMPO 0123/0202 1SM -SNPL OVC013
     FM020400 30008KT P6SM OVC018
     FM021400 36005KT P6SM SCT025
      TEMPO 0215/0218 BKN025=

USA.gov is the U.S. government's official web portal to all federal, state and local government web resources and services.